Ana Sayfa
METAR-TAF:

METAR-TAF

Havaalanları :

Otjiwarongo, Namibya

Enlem: 20-25-50S, Boylam: 16-39-45E, yükseklik: 1475 m

Güncel hava durumu gözlemi

Rapor saat 20:00 UTC de 39 dakika önce yapıldı.
Rüzgar doğudan 3 kt
Sıcaklık 25°C
Nem 15%
Basınç 1017 hPa

METAR: FYOW 222000Z AUTO 10003KT //// // ////// 25/M03 Q1017

Saat: 22:39 (20:39 UTC)


TAF: eksik

4.000'den fazla havaalanı için hava durumu gözlemleri ve tahminleri (METAR ve TAF raporları).

Kullanılabilir istasyonlar harita üzerinde sarı ve kırmızı noktalarla gösterilir.

İstasyonun adını görmek için fareyi noktanın üzerinde gezdirin.

Sonrasında hava gözlem ve tahminlerini görmek için tıklayın.

Haritayı değiştirmek için: yaklaştırmak için siyah artı işaretli yeşil düğmeye ve uzaklaştırmak için de eksi işaretli düğmeye hızla tıklayın; bitişik haritalar için yeşil okları kullanın.


METAR-TAF: